Time;durP1;ratioP1;P1;durP2;ratioP2;P2;SDS_P1;SDS_P2;PMS_P1;PMS_P2;Temp;Humidity;BMP_temperature;BMP_pressure;BME280_temperature;BME280_humidity;BME280_pressure;Samples;Min_cycle;Max_cycle;Signal;HPM_P1;HPM_P2
2023/12/22 00:00:16;;;;;;;12.38;2.20;;;;;;;;;;5022519;28;20018;-79
2023/12/22 00:02:42;;;;;;;13.57;2.67;;;;;;;;;;5015784;28;20006;-78
2023/12/22 00:05:08;;;;;;;8.75;1.80;;;;;;;;;;5027781;28;20017;-79
2023/12/22 00:07:34;;;;;;;21.77;3.17;;;;;;;;;;5025311;28;20104;-78
2023/12/22 00:10:00;;;;;;;14.60;2.65;;;;;;;;;;5018489;28;20184;-79
2023/12/22 00:12:26;;;;;;;15.57;2.35;;;;;;;;;;4998556;28;20012;-79
2023/12/22 00:14:52;;;;;;;14.50;2.08;;;;;;;;;;5009985;28;20485;-79
2023/12/22 00:17:18;;;;;;;6.20;1.40;;;;;;;;;;5008168;28;20041;-78
2023/12/22 00:19:44;;;;;;;10.20;1.77;;;;;;;;;;5026449;28;20017;-79
2023/12/22 00:22:10;;;;;;;9.90;2.00;;;;;;;;;;5016768;28;20021;-79
2023/12/22 00:24:36;;;;;;;8.25;1.42;;;;;;;;;;5016893;28;20021;-79
2023/12/22 00:27:03;;;;;;;11.95;2.42;;;;;;;;;;5021088;28;20464;-79
2023/12/22 00:29:29;;;;;;;10.65;2.20;;;;;;;;;;5026571;28;20100;-79
2023/12/22 00:31:55;;;;;;;16.00;2.35;;;;;;;;;;5012799;28;20064;-79
2023/12/22 00:34:22;;;;;;;13.43;2.60;;;;;;;;;;5019655;28;20114;-79
2023/12/22 00:36:48;;;;;;;7.70;1.38;;;;;;;;;;5025505;28;20470;-79
2023/12/22 00:39:14;;;;;;;11.70;1.40;;;;;;;;;;5023839;28;20378;-79
2023/12/22 00:41:40;;;;;;;18.02;3.00;;;;;;;;;;5027433;28;20079;-79
2023/12/22 00:44:06;;;;;;;18.75;2.88;;;;;;;;;;5023945;28;20021;-79
2023/12/22 00:46:32;;;;;;;13.82;2.40;;;;;;;;;;5020675;28;20009;-78
2023/12/22 00:48:58;;;;;;;15.13;2.30;;;;;;;;;;5020350;28;20029;-78
2023/12/22 00:51:24;;;;;;;16.77;2.60;;;;;;;;;;5007453;28;20445;-78
2023/12/22 00:53:50;;;;;;;15.90;3.20;;;;;;;;;;5026324;28;20014;-79
2023/12/22 00:56:16;;;;;;;15.73;2.17;;;;;;;;;;5009818;28;20100;-79
2023/12/22 00:58:42;;;;;;;9.73;2.08;;;;;;;;;;5029222;28;20448;-79
2023/12/22 01:01:08;;;;;;;13.55;2.50;;;;;;;;;;5025838;28;20348;-79
2023/12/22 01:03:34;;;;;;;8.05;1.52;;;;;;;;;;5013327;28;20104;-79
2023/12/22 01:06:01;;;;;;;12.90;1.65;;;;;;;;;;5028813;28;20032;-78
2023/12/22 01:08:27;;;;;;;8.82;1.73;;;;;;;;;;5025529;28;20022;-79
2023/12/22 01:10:53;;;;;;;9.15;1.52;;;;;;;;;;5014081;28;20060;-79
2023/12/22 01:13:19;;;;;;;8.88;1.50;;;;;;;;;;5008523;28;20369;-78
2023/12/22 01:15:45;;;;;;;11.82;1.90;;;;;;;;;;5023774;28;20093;-78
2023/12/22 01:18:11;;;;;;;12.88;2.28;;;;;;;;;;5020914;28;20048;-78
2023/12/22 01:20:37;;;;;;;14.32;2.63;;;;;;;;;;5014511;28;20497;-79
2023/12/22 01:23:03;;;;;;;11.23;1.20;;;;;;;;;;5017246;28;20020;-79
2023/12/22 01:25:29;;;;;;;15.63;2.10;;;;;;;;;;5027182;28;20519;-79
2023/12/22 01:27:55;;;;;;;8.57;1.42;;;;;;;;;;5023830;28;20030;-78
2023/12/22 01:30:21;;;;;;;7.10;1.25;;;;;;;;;;5014477;28;20770;-78
2023/12/22 01:32:48;;;;;;;18.80;1.90;;;;;;;;;;5023752;28;20013;-78
2023/12/22 01:35:14;;;;;;;13.25;2.28;;;;;;;;;;5022796;28;20049;-78
2023/12/22 01:37:40;;;;;;;18.02;2.42;;;;;;;;;;5021861;28;20099;-78
2023/12/22 01:40:07;;;;;;;14.48;2.03;;;;;;;;;;5026142;28;20389;-78
2023/12/22 01:42:33;;;;;;;17.90;2.63;;;;;;;;;;5027451;28;20603;-78
2023/12/22 01:44:59;;;;;;;13.73;2.45;;;;;;;;;;5024327;28;20044;-79
2023/12/22 01:47:25;;;;;;;18.75;2.83;;;;;;;;;;5008501;28;20470;-78
2023/12/22 01:49:52;;;;;;;7.22;1.25;;;;;;;;;;5017230;28;20026;-78
2023/12/22 01:52:18;;;;;;;10.68;1.40;;;;;;;;;;5015950;28;20021;-78
2023/12/22 01:54:44;;;;;;;2.80;0.47;;;;;;;;;;5022234;28;20016;-78
2023/12/22 01:57:13;;;;;;;6.80;0.93;;;;;;;;;;5027176;28;20021;-78
2023/12/22 01:59:39;;;;;;;2.88;0.52;;;;;;;;;;5027942;28;20022;-78
2023/12/22 02:02:05;;;;;;;10.90;0.95;;;;;;;;;;5016089;28;20359;-78
2023/12/22 02:04:31;;;;;;;11.02;1.40;;;;;;;;;;5014091;28;20031;-78
2023/12/22 02:06:59;;;;;;;11.52;1.90;;;;;;;;;;5006021;28;20433;-78
2023/12/22 02:09:25;;;;;;;15.75;2.53;;;;;;;;;;5012606;28;20024;-78
2023/12/22 02:11:51;;;;;;;12.82;2.08;;;;;;;;;;5013636;28;20304;-78
2023/12/22 02:14:17;;;;;;;15.43;3.40;;;;;;;;;;5012798;28;20072;-78
2023/12/22 02:16:51;;;;;;;16.38;2.78;;;;;;;;;;5018890;28;20434;-78
2023/12/22 02:19:23;;;;;;;9.48;2.03;;;;;;;;;;5015896;28;20014;-78
2023/12/22 02:22:05;;;;;;;9.02;1.50;;;;;;;;;;5016407;28;20037;-78
2023/12/22 02:24:31;;;;;;;5.25;1.08;;;;;;;;;;5026341;28;20013;-78
2023/12/22 02:27:02;;;;;;;14.00;1.10;;;;;;;;;;5021105;28;20045;-77
2023/12/22 02:29:29;;;;;;;2.03;0.40;;;;;;;;;;5023961;28;20545;-77
2023/12/22 02:31:56;;;;;;;3.33;0.60;;;;;;;;;;5010582;28;20065;-77
2023/12/22 02:34:23;;;;;;;7.55;1.15;;;;;;;;;;5010690;28;20490;-78
2023/12/22 02:36:50;;;;;;;7.70;0.75;;;;;;;;;;5021917;28;20045;-77
2023/12/22 02:39:17;;;;;;;5.80;0.75;;;;;;;;;;5014765;28;20018;-77
2023/12/22 02:41:43;;;;;;;20.55;3.22;;;;;;;;;;5004248;28;20026;-78
2023/12/22 02:44:10;;;;;;;5.13;0.93;;;;;;;;;;5010296;28;20022;-77
2023/12/22 02:46:36;;;;;;;8.60;1.27;;;;;;;;;;5026214;28;20022;-78
2023/12/22 02:49:02;;;;;;;11.32;1.45;;;;;;;;;;5012829;28;20419;-78
2023/12/22 02:51:28;;;;;;;14.30;2.20;;;;;;;;;;5024499;28;20036;-77
2023/12/22 02:53:54;;;;;;;13.27;1.50;;;;;;;;;;5024082;28;20002;-78
2023/12/22 02:56:20;;;;;;;16.75;1.63;;;;;;;;;;5025876;28;20027;-77
2023/12/22 02:58:46;;;;;;;13.43;2.10;;;;;;;;;;5025363;28;20723;-78
2023/12/22 03:01:12;;;;;;;11.30;2.03;;;;;;;;;;5025945;28;20021;-77
2023/12/22 03:03:38;;;;;;;15.18;2.28;;;;;;;;;;5025750;28;20013;-77
2023/12/22 03:06:04;;;;;;;14.32;2.10;;;;;;;;;;5026738;28;20396;-77
2023/12/22 03:08:30;;;;;;;9.98;1.85;;;;;;;;;;5020389;28;20496;-78
2023/12/22 03:10:56;;;;;;;20.15;2.95;;;;;;;;;;5021287;28;20465;-77
2023/12/22 03:13:22;;;;;;;15.15;2.50;;;;;;;;;;5018558;28;20017;-77
2023/12/22 03:15:48;;;;;;;6.50;1.17;;;;;;;;;;5018010;28;20074;-77
2023/12/22 03:18:14;;;;;;;11.65;1.63;;;;;;;;;;5020591;28;20042;-78
2023/12/22 03:20:40;;;;;;;14.07;2.05;;;;;;;;;;5011630;28;20202;-77
2023/12/22 03:23:06;;;;;;;20.15;2.00;;;;;;;;;;5019670;28;20029;-78
2023/12/22 03:25:32;;;;;;;17.95;2.28;;;;;;;;;;5014063;28;20025;-78
2023/12/22 03:27:58;;;;;;;8.93;1.55;;;;;;;;;;5011889;28;20029;-78
2023/12/22 03:30:24;;;;;;;9.02;1.95;;;;;;;;;;5011421;28;20421;-77
2023/12/22 03:32:50;;;;;;;14.77;1.80;;;;;;;;;;5020599;28;20421;-77
2023/12/22 03:35:16;;;;;;;9.23;1.80;;;;;;;;;;5010466;28;20378;-78
2023/12/22 03:37:42;;;;;;;17.15;2.78;;;;;;;;;;5025659;28;20022;-78
2023/12/22 03:40:09;;;;;;;6.55;2.42;;;;;;;;;;5006833;28;20938;-78
2023/12/22 03:42:35;;;;;;;10.50;1.63;;;;;;;;;;5007300;28;20014;-78
2023/12/22 03:45:01;;;;;;;11.68;1.67;;;;;;;;;;5007315;28;20100;-78
2023/12/22 03:47:27;;;;;;;10.82;1.58;;;;;;;;;;5021889;28;20384;-78
2023/12/22 03:49:53;;;;;;;15.30;2.05;;;;;;;;;;5005617;28;20828;-77
2023/12/22 03:52:20;;;;;;;10.95;1.50;;;;;;;;;;5027317;28;20021;-78
2023/12/22 03:54:46;;;;;;;9.25;1.27;;;;;;;;;;5019221;28;20555;-78
2023/12/22 03:57:12;;;;;;;12.27;2.05;;;;;;;;;;5023935;28;20026;-77
2023/12/22 03:59:38;;;;;;;15.30;2.25;;;;;;;;;;5030604;28;20005;-78
2023/12/22 04:02:04;;;;;;;21.67;2.20;;;;;;;;;;5030173;28;20072;-77
2023/12/22 04:04:30;;;;;;;13.40;2.50;;;;;;;;;;5029529;28;20176;-78
2023/12/22 04:06:56;;;;;;;15.20;1.90;;;;;;;;;;5026579;28;20513;-78
2023/12/22 04:09:22;;;;;;;9.32;1.48;;;;;;;;;;5008360;28;20022;-78
2023/12/22 04:11:48;;;;;;;11.15;1.60;;;;;;;;;;5018071;28;20032;-78
2023/12/22 04:14:15;;;;;;;13.55;1.80;;;;;;;;;;5014367;28;20049;-78
2023/12/22 04:16:41;;;;;;;18.25;1.88;;;;;;;;;;5008834;28;20017;-77
2023/12/22 04:19:07;;;;;;;10.43;1.50;;;;;;;;;;5016415;28;20095;-78
2023/12/22 04:21:33;;;;;;;8.82;1.73;;;;;;;;;;5024694;28;20044;-77
2023/12/22 04:23:59;;;;;;;7.90;1.42;;;;;;;;;;5016850;28;20466;-78
2023/12/22 04:26:25;;;;;;;10.25;1.83;;;;;;;;;;5015957;28;20033;-78
2023/12/22 04:28:51;;;;;;;19.27;2.30;;;;;;;;;;5024462;28;20013;-77
2023/12/22 04:31:17;;;;;;;15.07;1.95;;;;;;;;;;5014627;28;20010;-78
2023/12/22 04:33:43;;;;;;;11.32;2.20;;;;;;;;;;5026062;28;20037;-78
2023/12/22 04:36:09;;;;;;;16.65;2.88;;;;;;;;;;5011077;28;20056;-78
2023/12/22 04:38:35;;;;;;;16.63;2.67;;;;;;;;;;5027599;28;20121;-77
2023/12/22 04:41:01;;;;;;;15.80;1.90;;;;;;;;;;5027841;28;20030;-78
2023/12/22 04:43:27;;;;;;;13.35;2.20;;;;;;;;;;5014780;28;20097;-77
2023/12/22 04:45:53;;;;;;;20.92;2.50;;;;;;;;;;5026431;28;20121;-78
2023/12/22 04:48:19;;;;;;;13.45;1.92;;;;;;;;;;5014728;28;20021;-77
2023/12/22 04:50:45;;;;;;;13.32;2.25;;;;;;;;;;5008321;28;20014;-77
2023/12/22 04:53:11;;;;;;;11.60;1.75;;;;;;;;;;5024838;28;20018;-78
2023/12/22 04:55:37;;;;;;;10.48;2.55;;;;;;;;;;5008917;28;20018;-78
2023/12/22 04:58:03;;;;;;;10.35;1.50;;;;;;;;;;5013840;28;20396;-78
2023/12/22 05:00:29;;;;;;;16.70;2.00;;;;;;;;;;5023764;28;20024;-78
2023/12/22 05:02:55;;;;;;;22.77;2.83;;;;;;;;;;5028964;28;20018;-78
2023/12/22 05:05:21;;;;;;;10.13;1.70;;;;;;;;;;5028932;28;20021;-77
2023/12/22 05:07:48;;;;;;;14.27;3.05;;;;;;;;;;5017210;28;20049;-78
2023/12/22 05:10:14;;;;;;;13.05;1.90;;;;;;;;;;5008933;28;20021;-78
2023/12/22 05:12:40;;;;;;;15.98;1.75;;;;;;;;;;5018331;28;20026;-78
2023/12/22 05:15:07;;;;;;;17.73;2.10;;;;;;;;;;5027476;28;20014;-78
2023/12/22 05:17:33;;;;;;;13.98;2.10;;;;;;;;;;5018040;28;20041;-78
2023/12/22 05:19:59;;;;;;;10.15;1.67;;;;;;;;;;5007122;28;20041;-78
2023/12/22 05:22:26;;;;;;;11.52;2.15;;;;;;;;;;5016278;28;20071;-78
2023/12/22 05:24:51;;;;;;;13.05;1.55;;;;;;;;;;5027831;28;20025;-78
2023/12/22 05:27:18;;;;;;;10.48;1.70;;;;;;;;;;5021971;28;20022;-78
2023/12/22 05:29:44;;;;;;;15.77;1.80;;;;;;;;;;5007995;28;20470;-78
2023/12/22 05:32:11;;;;;;;11.73;2.00;;;;;;;;;;5013739;28;20044;-78
2023/12/22 05:34:37;;;;;;;10.95;2.17;;;;;;;;;;5028690;28;20024;-78
2023/12/22 05:37:03;;;;;;;13.95;1.88;;;;;;;;;;5025405;28;20048;-78
2023/12/22 05:39:29;;;;;;;17.55;2.03;;;;;;;;;;5007813;28;20017;-78
2023/12/22 05:41:55;;;;;;;15.50;2.38;;;;;;;;;;5008917;28;20044;-78
2023/12/22 05:44:22;;;;;;;11.80;2.08;;;;;;;;;;5028763;28;20075;-78
2023/12/22 05:46:48;;;;;;;18.08;2.53;;;;;;;;;;5026355;28;20044;-78
2023/12/22 05:49:14;;;;;;;15.07;2.67;;;;;;;;;;5006913;28;20089;-78
2023/12/22 05:51:40;;;;;;;17.73;2.33;;;;;;;;;;5011971;28;20676;-78
2023/12/22 05:54:13;;;;;;;20.98;2.90;;;;;;;;;;5026695;28;20132;-78
2023/12/22 05:56:39;;;;;;;13.38;2.05;;;;;;;;;;5023187;28;20021;-78
2023/12/22 05:59:05;;;;;;;14.15;1.67;;;;;;;;;;5024567;28;20109;-78
2023/12/22 06:01:31;;;;;;;12.27;2.50;;;;;;;;;;5026842;28;20013;-78
2023/12/22 06:03:57;;;;;;;10.82;1.58;;;;;;;;;;5009758;28;20026;-78
2023/12/22 06:06:23;;;;;;;11.65;1.55;;;;;;;;;;5017571;28;20057;-78
2023/12/22 06:08:50;;;;;;;9.52;1.88;;;;;;;;;;5026455;28;20111;-78
2023/12/22 06:11:16;;;;;;;11.75;1.73;;;;;;;;;;5027516;28;20010;-78
2023/12/22 06:13:42;;;;;;;13.35;1.77;;;;;;;;;;5014274;28;20124;-78
2023/12/22 06:16:11;;;;;;;17.13;2.13;;;;;;;;;;5008268;28;20458;-78
2023/12/22 06:18:37;;;;;;;9.43;1.30;;;;;;;;;;5016315;28;21072;-78
2023/12/22 06:21:04;;;;;;;18.85;2.72;;;;;;;;;;5006298;28;20477;-78
2023/12/22 06:23:30;;;;;;;16.30;1.70;;;;;;;;;;5017713;28;20025;-78
2023/12/22 06:25:56;;;;;;;14.50;1.52;;;;;;;;;;5027510;28;20028;-78
2023/12/22 06:28:22;;;;;;;14.13;1.95;;;;;;;;;;5017567;28;20694;-78
2023/12/22 06:30:48;;;;;;;13.60;1.98;;;;;;;;;;5021657;28;20006;-78
2023/12/22 06:33:14;;;;;;;9.80;1.70;;;;;;;;;;5014629;28;20083;-78
2023/12/22 06:35:44;;;;;;;13.88;2.25;;;;;;;;;;5027421;28;20028;-79
2023/12/22 06:38:11;;;;;;;17.30;2.75;;;;;;;;;;5021062;28;20048;-77
2023/12/22 06:40:37;;;;;;;17.35;2.35;;;;;;;;;;5006610;28;20029;-78
2023/12/22 06:43:04;;;;;;;16.27;2.78;;;;;;;;;;5013231;28;20067;-78
2023/12/22 06:45:30;;;;;;;14.00;2.63;;;;;;;;;;5027543;28;20018;-78
2023/12/22 06:47:56;;;;;;;14.13;1.83;;;;;;;;;;5022319;28;20014;-78
2023/12/22 06:50:22;;;;;;;18.08;3.00;;;;;;;;;;5007721;28;20017;-78
2023/12/22 06:52:49;;;;;;;13.73;2.70;;;;;;;;;;5008756;28;20385;-78
2023/12/22 06:55:16;;;;;;;14.82;2.47;;;;;;;;;;5007839;28;20022;-78
2023/12/22 06:57:43;;;;;;;19.13;3.50;;;;;;;;;;5007680;28;20034;-78
2023/12/22 07:00:09;;;;;;;17.50;2.47;;;;;;;;;;5026404;28;20017;-78
2023/12/22 07:02:35;;;;;;;19.27;2.67;;;;;;;;;;5025982;28;20397;-77
2023/12/22 07:05:10;;;;;;;17.58;2.75;;;;;;;;;;5006615;28;20473;-80
2023/12/22 07:07:37;;;;;;;22.63;2.67;;;;;;;;;;5006524;28;20083;-80
2023/12/22 07:10:03;;;;;;;13.40;1.85;;;;;;;;;;5025666;28;20418;-79
2023/12/22 07:12:29;;;;;;;13.48;2.15;;;;;;;;;;5008825;28;20010;-79
2023/12/22 07:14:55;;;;;;;8.55;1.63;;;;;;;;;;5002536;28;20024;-80
2023/12/22 07:17:21;;;;;;;13.50;2.15;;;;;;;;;;4994414;28;20026;-80
2023/12/22 07:19:47;;;;;;;9.82;1.45;;;;;;;;;;4996717;28;20034;-80
2023/12/22 07:22:14;;;;;;;9.88;1.75;;;;;;;;;;5000951;28;21160;-80
2023/12/22 07:24:41;;;;;;;17.10;2.60;;;;;;;;;;5017705;28;20014;-80
2023/12/22 07:27:07;;;;;;;14.13;2.13;;;;;;;;;;5005724;28;20513;-80
2023/12/22 07:29:33;;;;;;;8.48;1.70;;;;;;;;;;5012695;28;20052;-81
2023/12/22 07:31:59;;;;;;;13.80;1.80;;;;;;;;;;5017622;28;20061;-79
2023/12/22 07:34:25;;;;;;;10.52;1.00;;;;;;;;;;5029268;28;20280;-80
2023/12/22 07:36:53;;;;;;;6.80;1.00;;;;;;;;;;5028683;28;20182;-82
2023/12/22 07:39:19;;;;;;;8.40;0.98;;;;;;;;;;5021255;28;20382;-87
2023/12/22 07:41:45;;;;;;;7.22;1.20;;;;;;;;;;5030365;28;20072;-84
2023/12/22 07:44:12;;;;;;;8.02;0.73;;;;;;;;;;5030688;28;20103;-80
2023/12/22 07:46:38;;;;;;;3.10;1.13;;;;;;;;;;5000334;28;20058;-81
2023/12/22 07:49:04;;;;;;;5.05;0.90;;;;;;;;;;5007419;28;20018;-80
2023/12/22 07:51:30;;;;;;;9.85;1.00;;;;;;;;;;5010982;28;20017;-81
2023/12/22 07:53:56;;;;;;;6.07;1.00;;;;;;;;;;5005691;28;20013;-81
2023/12/22 07:56:22;;;;;;;6.40;0.73;;;;;;;;;;5009483;28;20022;-81
2023/12/22 07:58:48;;;;;;;6.65;0.68;;;;;;;;;;5010374;28;20506;-82
2023/12/22 08:01:17;;;;;;;6.00;0.70;;;;;;;;;;5010206;28;20479;-82
2023/12/22 08:03:43;;;;;;;10.07;1.13;;;;;;;;;;5019758;28;20358;-82
2023/12/22 08:06:09;;;;;;;6.25;1.30;;;;;;;;;;5010748;28;20026;-82
2023/12/22 08:08:36;;;;;;;10.00;1.20;;;;;;;;;;5015850;28;20508;-82
2023/12/22 08:11:02;;;;;;;7.57;1.10;;;;;;;;;;5019105;28;20022;-83
2023/12/22 08:13:28;;;;;;;8.57;0.98;;;;;;;;;;5014236;28;20013;-80
2023/12/22 08:15:54;;;;;;;11.23;1.38;;;;;;;;;;5017527;28;20406;-80
2023/12/22 08:18:20;;;;;;;13.18;1.48;;;;;;;;;;5015622;28;20050;-79
2023/12/22 08:20:49;;;;;;;14.15;1.60;;;;;;;;;;5020236;28;20038;-78
2023/12/22 08:23:15;;;;;;;11.38;1.10;;;;;;;;;;5000681;28;20104;-79
2023/12/22 08:25:41;;;;;;;14.38;2.13;;;;;;;;;;5001248;28;20029;-79
2023/12/22 08:28:07;;;;;;;8.43;1.20;;;;;;;;;;5021022;28;20014;-79
2023/12/22 08:30:34;;;;;;;12.00;1.63;;;;;;;;;;5000941;28;20026;-79
2023/12/22 08:33:00;;;;;;;14.50;2.45;;;;;;;;;;5002901;28;20029;-79
2023/12/22 08:35:26;;;;;;;11.63;1.65;;;;;;;;;;5000467;28;20032;-79
2023/12/22 08:37:52;;;;;;;12.88;1.60;;;;;;;;;;5010341;28;20010;-79
2023/12/22 08:40:25;;;;;;;9.15;1.55;;;;;;;;;;5009607;28;20029;-79
2023/12/22 08:42:54;;;;;;;15.85;1.60;;;;;;;;;;5008848;28;20021;-79
2023/12/22 08:45:20;;;;;;;10.52;2.05;;;;;;;;;;5008915;28;20034;-79
2023/12/22 08:47:46;;;;;;;14.88;1.70;;;;;;;;;;5009674;28;20389;-79
2023/12/22 08:50:13;;;;;;;11.70;2.03;;;;;;;;;;5009614;28;20018;-79
2023/12/22 08:52:39;;;;;;;13.13;1.65;;;;;;;;;;5026190;28;20025;-79
2023/12/22 08:55:05;;;;;;;9.35;1.70;;;;;;;;;;5027635;28;20382;-79
2023/12/22 08:57:31;;;;;;;8.15;1.48;;;;;;;;;;5009444;28;20038;-79
2023/12/22 08:59:58;;;;;;;8.93;1.75;;;;;;;;;;4998286;28;20492;-80
2023/12/22 09:02:24;;;;;;;10.55;1.80;;;;;;;;;;4998283;28;20560;-79
2023/12/22 09:04:50;;;;;;;13.10;1.98;;;;;;;;;;4998014;28;20040;-79
2023/12/22 09:07:16;;;;;;;11.27;2.10;;;;;;;;;;4999304;28;20105;-80
2023/12/22 09:09:42;;;;;;;15.40;2.00;;;;;;;;;;4998524;28;20049;-78
2023/12/22 09:12:09;;;;;;;11.52;1.75;;;;;;;;;;5022515;28;20025;-79
2023/12/22 09:14:35;;;;;;;13.52;1.92;;;;;;;;;;5027280;28;20096;-79
2023/12/22 09:17:01;;;;;;;15.25;2.60;;;;;;;;;;5024089;28;20053;-79
2023/12/22 09:19:27;;;;;;;16.30;3.72;;;;;;;;;;5007450;28;20443;-79
2023/12/22 09:21:53;;;;;;;13.63;2.17;;;;;;;;;;5016763;28;20025;-79
2023/12/22 09:24:19;;;;;;;13.32;1.92;;;;;;;;;;5004134;28;20112;-79
2023/12/22 09:26:45;;;;;;;14.43;1.92;;;;;;;;;;5015931;28;20281;-79
2023/12/22 09:29:11;;;;;;;13.57;2.20;;;;;;;;;;5005154;28;20248;-79
2023/12/22 09:31:37;;;;;;;14.93;2.22;;;;;;;;;;5011545;28;20010;-83
2023/12/22 09:34:03;;;;;;;10.05;2.13;;;;;;;;;;5006610;28;20014;-82
2023/12/22 09:36:29;;;;;;;16.67;2.25;;;;;;;;;;5015018;28;20437;-81
2023/12/22 09:38:55;;;;;;;13.05;1.92;;;;;;;;;;5026115;28;20018;-82
2023/12/22 09:41:21;;;;;;;11.02;1.40;;;;;;;;;;5017818;28;20079;-82
2023/12/22 09:43:50;;;;;;;12.35;1.70;;;;;;;;;;5014587;28;20234;-82
2023/12/22 09:46:17;;;;;;;12.85;1.88;;;;;;;;;;5007334;28;20013;-81
2023/12/22 09:48:43;;;;;;;10.30;1.80;;;;;;;;;;5005681;28;20017;-81
2023/12/22 09:51:11;;;;;;;15.05;1.67;;;;;;;;;;5020084;28;20091;-80
2023/12/22 09:53:38;;;;;;;12.93;2.00;;;;;;;;;;5007476;28;20022;-82
2023/12/22 09:56:05;;;;;;;13.30;2.00;;;;;;;;;;5024246;28;20068;-81
2023/12/22 09:58:31;;;;;;;14.10;1.98;;;;;;;;;;5019856;28;20022;-82
2023/12/22 10:00:58;;;;;;;15.00;2.45;;;;;;;;;;5016065;28;20428;-83
2023/12/22 10:03:25;;;;;;;10.00;1.23;;;;;;;;;;5005574;28;20022;-82
2023/12/22 10:05:51;;;;;;;8.48;1.20;;;;;;;;;;5017703;28;20031;-82
2023/12/22 10:08:20;;;;;;;11.55;1.30;;;;;;;;;;4998063;28;20110;-81
2023/12/22 10:10:47;;;;;;;8.88;1.20;;;;;;;;;;5011890;28;20066;-82
2023/12/22 10:13:13;;;;;;;9.02;1.20;;;;;;;;;;5002999;28;20079;-82
2023/12/22 10:15:43;;;;;;;10.38;1.30;;;;;;;;;;5010121;28;20012;-82
2023/12/22 10:18:12;;;;;;;9.32;1.52;;;;;;;;;;5011742;28;20432;-82
2023/12/22 10:20:39;;;;;;;10.27;1.73;;;;;;;;;;5007975;28;20022;-82
2023/12/22 10:23:05;;;;;;;10.48;1.40;;;;;;;;;;5025810;28;20028;-82
2023/12/22 10:25:35;;;;;;;10.05;1.70;;;;;;;;;;5024704;28;20029;-82
2023/12/22 10:28:01;;;;;;;10.68;1.25;;;;;;;;;;5005778;28;20084;-82
2023/12/22 10:30:28;;;;;;;8.98;1.45;;;;;;;;;;5005646;28;20020;-82
2023/12/22 10:32:54;;;;;;;8.95;1.52;;;;;;;;;;5024892;28;20024;-82
2023/12/22 10:35:21;;;;;;;10.98;1.67;;;;;;;;;;5025183;28;20248;-83
2023/12/22 10:37:56;;;;;;;7.45;1.02;;;;;;;;;;5007736;28;20318;-82
2023/12/22 10:40:22;;;;;;;8.50;1.30;;;;;;;;;;5005672;28;20508;-81
2023/12/22 10:42:49;;;;;;;11.30;1.73;;;;;;;;;;5023552;28;20017;-82
2023/12/22 10:45:17;;;;;;;9.68;1.45;;;;;;;;;;5025204;28;20006;-81
2023/12/22 10:47:43;;;;;;;7.32;1.60;;;;;;;;;;5010953;28;20026;-81
2023/12/22 10:50:13;;;;;;;11.80;1.58;;;;;;;;;;5005957;28;20390;-83
2023/12/22 10:52:39;;;;;;;9.77;1.17;;;;;;;;;;5006920;28;20071;-82
2023/12/22 10:55:05;;;;;;;8.63;1.27;;;;;;;;;;5021469;28;20006;-81
2023/12/22 10:57:38;;;;;;;7.10;1.05;;;;;;;;;;5022410;28;20021;-82
2023/12/22 11:00:04;;;;;;;8.05;0.95;;;;;;;;;;5011120;28;20017;-82
2023/12/22 11:02:34;;;;;;;10.05;1.13;;;;;;;;;;5014443;28;20014;-81
2023/12/22 11:05:00;;;;;;;9.13;1.20;;;;;;;;;;5017980;28;20014;-81
2023/12/22 11:07:26;;;;;;;12.27;1.60;;;;;;;;;;5026090;28;20782;-82
2023/12/22 11:09:54;;;;;;;8.95;1.30;;;;;;;;;;5020796;28;20006;-82
2023/12/22 11:12:21;;;;;;;5.13;1.10;;;;;;;;;;5000352;28;20018;-82
2023/12/22 11:14:52;;;;;;;9.25;1.52;;;;;;;;;;5019142;28;20008;-81
2023/12/22 11:17:22;;;;;;;7.20;0.98;;;;;;;;;;5019821;28;20034;-80
2023/12/22 11:19:54;;;;;;;8.52;1.17;;;;;;;;;;5002679;28;20025;-81
2023/12/22 11:22:21;;;;;;;10.65;1.10;;;;;;;;;;5002281;28;20030;-80
2023/12/22 11:24:50;;;;;;;10.43;1.38;;;;;;;;;;5005233;28;21351;-81
2023/12/22 11:27:20;;;;;;;9.93;1.55;;;;;;;;;;5002792;28;20082;-82
2023/12/22 11:29:50;;;;;;;8.52;1.10;;;;;;;;;;5006700;28;20029;-80
2023/12/22 11:32:16;;;;;;;7.30;1.00;;;;;;;;;;5002951;28;21174;-80
2023/12/22 11:34:46;;;;;;;11.48;1.30;;;;;;;;;;5004749;28;20481;-81
2023/12/22 11:37:16;;;;;;;11.60;1.25;;;;;;;;;;5003343;28;20535;-80
2023/12/22 11:39:42;;;;;;;11.67;1.33;;;;;;;;;;5006645;28;20490;-81
2023/12/22 11:42:20;;;;;;;8.43;1.05;;;;;;;;;;5002784;28;20294;-80
2023/12/22 11:44:46;;;;;;;10.48;1.30;;;;;;;;;;5004147;28;20017;-80
2023/12/22 11:47:14;;;;;;;9.77;1.27;;;;;;;;;;4997307;28;20552;-80
2023/12/22 11:49:40;;;;;;;9.60;1.35;;;;;;;;;;5010797;28;20041;-81
2023/12/22 11:52:10;;;;;;;13.35;1.67;;;;;;;;;;5004829;28;20080;-80
2023/12/22 11:54:53;;;;;;;11.05;1.42;;;;;;;;;;5024571;28;20049;-81
2023/12/22 11:57:30;;;;;;;10.77;1.90;;;;;;;;;;5013212;28;20310;-81
2023/12/22 11:59:56;;;;;;;10.50;1.15;;;;;;;;;;5012703;28;20063;-81
2023/12/22 12:02:23;;;;;;;12.50;1.27;;;;;;;;;;5002658;28;20467;-81
2023/12/22 12:04:49;;;;;;;7.75;1.00;;;;;;;;;;5019275;28;20068;-81
2023/12/22 12:07:35;;;;;;;7.90;0.90;;;;;;;;;;5011933;28;20042;-81
2023/12/22 12:10:01;;;;;;;5.10;1.00;;;;;;;;;;5016122;28;20048;-82
2023/12/22 12:12:28;;;;;;;7.22;0.90;;;;;;;;;;5013516;28;20014;-81
2023/12/22 12:14:58;;;;;;;4.78;0.90;;;;;;;;;;5017070;28;20014;-81
2023/12/22 12:17:24;;;;;;;;;;;;;;;;;;5025160;28;20052;-81
2023/12/22 12:19:51;;;;;;;8.73;1.23;;;;;;;;;;5004983;28;19909;-81
2023/12/22 12:22:18;;;;;;;9.13;1.42;;;;;;;;;;5030373;28;20021;-81
2023/12/22 12:24:45;;;;;;;8.75;1.50;;;;;;;;;;5028381;28;20128;-81
2023/12/22 12:27:11;;;;;;;9.82;1.20;;;;;;;;;;5023778;28;20034;-83
2023/12/22 12:29:39;;;;;;;12.35;2.47;;;;;;;;;;5019763;28;20428;-83
2023/12/22 12:32:08;;;;;;;9.93;1.38;;;;;;;;;;5016366;28;20021;-83
2023/12/22 12:34:34;;;;;;;9.05;1.20;;;;;;;;;;5009552;28;20010;-82
2023/12/22 12:37:03;;;;;;;10.48;1.55;;;;;;;;;;5009431;28;20071;-82
2023/12/22 12:39:32;;;;;;;8.73;1.50;;;;;;;;;;5024092;28;20037;-82
2023/12/22 12:42:00;;;;;;;5.50;1.30;;;;;;;;;;5027792;28;20025;-83
2023/12/22 12:44:27;;;;;;;8.38;2.20;;;;;;;;;;5013213;28;20440;-82
2023/12/22 12:46:53;;;;;;;9.73;1.13;;;;;;;;;;5008275;28;20029;-82
2023/12/22 12:49:19;;;;;;;8.40;0.93;;;;;;;;;;5021053;28;20009;-82
2023/12/22 12:51:47;;;;;;;12.43;1.05;;;;;;;;;;5029273;28;20385;-82
2023/12/22 12:54:13;;;;;;;7.05;1.02;;;;;;;;;;5017474;28;20014;-82
2023/12/22 12:56:46;;;;;;;12.52;1.70;;;;;;;;;;5008326;28;20022;-82
2023/12/22 12:59:17;;;;;;;11.40;1.85;;;;;;;;;;5009628;28;20022;-81
2023/12/22 13:01:44;;;;;;;9.32;0.90;;;;;;;;;;5004614;28;20516;-83
2023/12/22 13:04:12;;;;;;;8.18;1.33;;;;;;;;;;5003534;28;20148;-82
2023/12/22 13:06:48;;;;;;;12.20;1.60;;;;;;;;;;5003961;28;20413;-82
2023/12/22 13:09:14;;;;;;;9.05;0.93;;;;;;;;;;5002280;28;20013;-82
2023/12/22 13:11:42;;;;;;;12.65;1.00;;;;;;;;;;5003711;28;20078;-81
2023/12/22 13:14:09;;;;;;;6.50;0.88;;;;;;;;;;4999016;28;21205;-82
2023/12/22 13:16:35;;;;;;;7.63;1.00;;;;;;;;;;5001122;28;20018;-82
2023/12/22 13:19:01;;;;;;;9.60;1.20;;;;;;;;;;5005007;28;20406;-82
2023/12/22 13:21:30;;;;;;;8.85;1.13;;;;;;;;;;4999399;28;20120;-82
2023/12/22 13:24:13;;;;;;;10.45;1.48;;;;;;;;;;5002100;28;20501;-82
2023/12/22 13:26:39;;;;;;;9.98;1.58;;;;;;;;;;5010997;28;20017;-86
2023/12/22 13:29:06;;;;;;;7.35;1.10;;;;;;;;;;5004805;28;20030;-82
2023/12/22 13:31:32;;;;;;;7.40;1.15;;;;;;;;;;4999746;28;20059;-82
2023/12/22 13:33:58;;;;;;;9.55;1.42;;;;;;;;;;5010426;28;20178;-82
2023/12/22 13:36:24;;;;;;;11.63;0.90;;;;;;;;;;5006634;28;20076;-82
2023/12/22 13:38:50;;;;;;;4.55;0.68;;;;;;;;;;5016890;28;20087;-82
2023/12/22 13:41:17;;;;;;;1.58;0.17;;;;;;;;;;5011687;28;20029;-81
2023/12/22 13:43:46;;;;;;;6.30;0.75;;;;;;;;;;5000858;28;20034;-81
2023/12/22 13:46:14;;;;;;;4.88;1.23;;;;;;;;;;5003794;28;20272;-81
2023/12/22 13:48:40;;;;;;;9.18;1.25;;;;;;;;;;4999411;28;20079;-81
2023/12/22 13:51:06;;;;;;;8.75;1.00;;;;;;;;;;5008253;28;20018;-82
2023/12/22 13:53:32;;;;;;;11.02;0.82;;;;;;;;;;5001559;28;20564;-81
2023/12/22 13:56:02;;;;;;;7.07;0.90;;;;;;;;;;5000447;28;20261;-81
2023/12/22 13:58:28;;;;;;;6.05;0.80;;;;;;;;;;5001189;28;20485;-81
2023/12/22 14:00:54;;;;;;;6.63;0.73;;;;;;;;;;5001046;28;20080;-81
2023/12/22 14:03:21;;;;;;;4.38;0.82;;;;;;;;;;5006316;28;20115;-81
2023/12/22 14:05:48;;;;;;;10.13;1.00;;;;;;;;;;5024193;28;20133;-81
2023/12/22 14:08:15;;;;;;;8.27;1.05;;;;;;;;;;5005337;28;20026;-81
2023/12/22 14:10:47;;;;;;;10.50;0.90;;;;;;;;;;5006712;28;20111;-82
2023/12/22 14:13:14;;;;;;;7.70;0.80;;;;;;;;;;5006177;28;20026;-81
2023/12/22 14:15:42;;;;;;;12.02;1.60;;;;;;;;;;5029049;28;20025;-81
2023/12/22 14:18:08;;;;;;;6.25;0.73;;;;;;;;;;5005538;28;20144;-82
2023/12/22 14:20:34;;;;;;;11.20;1.35;;;;;;;;;;5027008;28;20045;-81
2023/12/22 14:23:00;;;;;;;7.10;1.15;;;;;;;;;;5004340;28;20046;-82
2023/12/22 14:25:27;;;;;;;11.95;1.13;;;;;;;;;;5007558;28;20044;-82
2023/12/22 14:27:57;;;;;;;8.95;1.00;;;;;;;;;;5011945;28;20037;-77
2023/12/22 14:30:23;;;;;;;5.15;0.93;;;;;;;;;;5009789;28;20028;-78
2023/12/22 14:32:49;;;;;;;7.93;0.90;;;;;;;;;;5009039;28;20028;-77